Eendracht — PDVN — position and weather

sailwx.info

Track history (hours):
 
Tides and Currents Weather Stations Pressure Air Temp Water Temp Dewpoint Dewpoint Depression Visibility Wind Speed Wind Dir Waves Ship Positions

Eendracht (Netherlands)

Last reported at 2015-Jul-06 16:16 UTC. Time now 2015-Jul-07 00:20 UTC.
Position N 55°52' W 007°05'.

Length 59 m; beam 12 m; draft 5 m.

MMSI: 244543000.

Date/timePositionNaut miles runAvg speedWind from/ knotsBaromVisibWave heightAir tempDewpointWater temp
2015-Jul-06 16:16N 55°52' W 007°05'912.1
2015-Jul-06 15:34N 55°44' W 006°59'1110.9
2015-Jul-06 14:33N 55°34' W 006°51'8 7.8
2015-Jul-06 13:33N 55°26' W 006°47'6 5.8
2015-Jul-06 12:34N 55°21' W 006°45'8 7.6
2015-Jul-06 11:33N 55°13' W 006°49'4 4.5
2015-Jul-06 10:33N 55°15' W 006°42'3 2.9
2015-Jul-06 09:33N 55°16' W 006°46'4 3.5
2015-Jul-06 08:33N 55°19' W 006°46'3 3.0
2015-Jul-06 07:33N 55°18' W 006°41'5 4.8
2015-Jul-06 06:33N 55°14' W 006°35'1 1.0
2015-Jul-06 05:23N 55°13' W 006°34'0 0.0
2015-Jul-06 04:26N 55°13' W 006°34'0 0.0
2015-Jul-06 03:26N 55°13' W 006°34'0 0.0
2015-Jul-06 02:26N 55°13' W 006°34'0 0.1
2015-Jul-06 01:26N 55°13' W 006°34'0 0.0
2015-Jul-06 00:26N 55°13' W 006°34'0 0.0
2015-Jul-05 23:29N 55°13' W 006°34'0 0.0
2015-Jul-05 22:30N 55°13' W 006°34'0 0.0
2015-Jul-05 21:33N 55°13' W 006°34'4 4.3
2015-Jul-05 20:33N 55°16' W 006°29'7 7.1
2015-Jul-05 19:33N 55°15' W 006°16'6 6.3
2015-Jul-05 18:33N 55°14' W 006°06'1110.2
2015-Jul-05 17:27N 55°05' W 005°54'1010.9
2015-Jul-05 16:33N 54°56' W 005°48'1010.3
2015-Jul-05 15:33N 54°47' W 005°39'6 5.8
2015-Jul-05 14:33N 54°41' W 005°43'4 4.4
2015-Jul-05 13:33N 54°40' W 005°50'5 0.2
2015-Jul-04 08:29N 54°36' W 005°55'0 0.0
2015-Jul-04 04:05N 54°36' W 005°55'0 0.0
2015-Jul-04 03:32N 54°36' W 005°55'0 0.0
2015-Jul-03 23:17N 54°36' W 005°55'0 0.0
2015-Jul-03 22:26N 54°36' W 005°55'0 0.0
2015-Jul-03 06:31N 54°37' W 005°55'7 6.8
2015-Jul-03 05:33N 54°41' W 005°47'4 3.6
2015-Jul-03 04:32N 54°41' W 005°41'0 0.0
2015-Jul-03 03:32N 54°41' W 005°41'0 0.0
2015-Jul-03 02:32N 54°41' W 005°41'0 0.0
2015-Jul-03 01:32N 54°41' W 005°41'0 0.0
2015-Jul-03 00:32N 54°41' W 005°41'0 0.0
2015-Jul-02 23:32N 54°41' W 005°41'0 0.0
2015-Jul-02 22:32N 54°41' W 005°41'0 0.0
2015-Jul-02 21:32N 54°41' W 005°41'0 0.3
2015-Jul-02 20:34N 54°41' W 005°40'5 5.4
2015-Jul-02 19:34N 54°46' W 005°36'7 7.0
2015-Jul-02 18:31N 54°52' W 005°40'7 6.8
2015-Jul-02 17:33N 54°57' W 005°49'7 5.9
2015-Jul-02 16:23N 55°03' W 005°55'5 6.3
2015-Jul-02 15:33N 55°08' W 005°58'5 4.6
2015-Jul-02 14:33N 55°12' W 006°02'4 4.0
2015-Jul-02 13:33N 55°14' W 006°08'2 2.3
2015-Jul-02 12:34N 55°14' W 006°12'2 1.8
2015-Jul-02 11:34N 55°15' W 006°15'5 5.3
2015-Jul-02 10:33N 55°16' W 006°24'4 4.2
2015-Jul-02 09:33N 55°18' W 006°30'5 5.4
2015-Jul-02 08:33N 55°24' W 006°29'6 5.8
2015-Jul-02 07:33N 55°29' W 006°29'6 5.5
2015-Jul-02 06:33N 55°35' W 006°31'6 6.4
2015-Jul-02 05:33N 55°41' W 006°34'7 6.5
2015-Jul-02 04:33N 55°47' W 006°31'20 0.5
2015-Jun-30 09:33N 55°40' W 005°59'6 6.3
2015-Jun-30 08:33N 55°35' W 006°06'4 3.8
2015-Jun-30 07:26N 55°38' W 006°13'0 0.0
2015-Jun-30 06:26N 55°38' W 006°13'0 0.0
2015-Jun-30 05:33N 55°38' W 006°13'4 3.6
2015-Jun-30 04:33N 55°34' W 006°11'4 4.5
2015-Jun-30 03:33N 55°30' W 006°10'5 5.5
2015-Jun-30 02:33N 55°29' W 006°01'5 5.0
2015-Jun-30 01:33N 55°28' W 005°52'6 6.5
2015-Jun-30 00:33N 55°22' W 005°51'7 7.1
2015-Jun-29 23:33N 55°16' W 005°45'22 5.5
2015-Jun-29 19:30N 55°23' W 005°08'15 0.6
2015-Jun-28 18:30N 55°09' W 005°17'4 3.7
2015-Jun-28 17:33N 55°05' W 005°20'1 0.9
2015-Jun-28 16:33N 55°05' W 005°22'2 1.9
2015-Jun-28 15:33N 55°04' W 005°24'2 1.8
2015-Jun-28 14:33N 55°03' W 005°27'3 2.6
2015-Jun-28 13:33N 55°00' W 005°29'3 3.0
2015-Jun-28 12:32N 54°58' W 005°31'3 2.8
2015-Jun-28 11:33N 54°55' W 005°32'4 3.6
2015-Jun-28 10:33N 54°51' W 005°32'5 4.7
2015-Jun-28 09:33N 54°47' W 005°32'6 6.3
2015-Jun-28 08:33N 54°42' W 005°39'7 6.8
2015-Jun-28 07:33N 54°40' W 005°51'4 4.0
2015-Jun-28 06:28N 54°36' W 005°55'0 0.0
2015-Jun-28 05:31N 54°36' W 005°55'0 0.0
2015-Jun-28 04:31N 54°36' W 005°55'0 0.0
2015-Jun-28 03:31N 54°36' W 005°55'0 0.0
2015-Jun-28 02:31N 54°36' W 005°55'0 0.0
2015-Jun-28 01:28N 54°36' W 005°55'0 0.0
2015-Jun-28 00:28N 54°36' W 005°55'0 0.0
2015-Jun-27 23:28N 54°36' W 005°55'0 0.0
2015-Jun-27 22:34N 54°36' W 005°55'0 0.0
2015-Jun-27 20:21N 54°36' W 005°55'0 0.0
2015-Jun-27 19:27N 54°36' W 005°55'0 0.0
2015-Jun-27 18:24N 54°36' W 005°55'0 0.0
2015-Jun-27 17:33N 54°36' W 005°55'0 0.0
2015-Jun-27 16:33N 54°36' W 005°55'0 0.0
2015-Jun-27 10:15N 54°36' W 005°55'0 0.0
2015-Jun-27 07:33N 54°36' W 005°55'0 0.0
2015-Jun-27 06:30N 54°36' W 005°55'0 0.0
2015-Jun-27 05:33N 54°36' W 005°55'0 0.0
2015-Jun-27 04:27N 54°36' W 005°55'0 0.0
2015-Jun-27 03:30N 54°36' W 005°55'0 0.0
2015-Jun-27 01:21N 54°36' W 005°55'0 0.0
2015-Jun-27 00:30N 54°36' W 005°55'0 0.0
2015-Jun-26 23:24N 54°36' W 005°55'0 0.0
2015-Jun-26 22:30N 54°36' W 005°55'0 0.0
2015-Jun-26 21:15N 54°36' W 005°55'0 0.0
2015-Jun-26 19:33N 54°36' W 005°55'0 0.0
2015-Jun-26 17:21N 54°36' W 005°55'  
Track history (hours):
 
Tides and Currents Weather Stations Pressure Air Temp Water Temp Dewpoint Dewpoint Depression Visibility Wind Speed Wind Dir Waves Ship Positions

Eendracht (Netherlands)

Last reported at 2015-Jul-06 16:16 UTC. Time now 2015-Jul-07 00:20 UTC.
Position N 55°52' W 007°05'.

Length 59 m; beam 12 m; draft 5 m.

MMSI: 244543000.

Date/timePositionNaut miles runAvg speedWind from/ knotsBaromVisibWave heightAir tempDewpointWater temp
2015-Jul-06 16:16N 55°52' W 007°05'912.1
2015-Jul-06 15:34N 55°44' W 006°59'1110.9
2015-Jul-06 14:33N 55°34' W 006°51'8 7.8
2015-Jul-06 13:33N 55°26' W 006°47'6 5.8
2015-Jul-06 12:34N 55°21' W 006°45'8 7.6
2015-Jul-06 11:33N 55°13' W 006°49'4 4.5
2015-Jul-06 10:33N 55°15' W 006°42'3 2.9
2015-Jul-06 09:33N 55°16' W 006°46'4 3.5
2015-Jul-06 08:33N 55°19' W 006°46'3 3.0
2015-Jul-06 07:33N 55°18' W 006°41'5 4.8
2015-Jul-06 06:33N 55°14' W 006°35'1 1.0
2015-Jul-06 05:23N 55°13' W 006°34'0 0.0
2015-Jul-06 04:26N 55°13' W 006°34'0 0.0
2015-Jul-06 03:26N 55°13' W 006°34'0 0.0
2015-Jul-06 02:26N 55°13' W 006°34'0 0.1
2015-Jul-06 01:26N 55°13' W 006°34'0 0.0
2015-Jul-06 00:26N 55°13' W 006°34'0 0.0
2015-Jul-05 23:29N 55°13' W 006°34'0 0.0
2015-Jul-05 22:30N 55°13' W 006°34'0 0.0
2015-Jul-05 21:33N 55°13' W 006°34'4 4.3
2015-Jul-05 20:33N 55°16' W 006°29'7 7.1
2015-Jul-05 19:33N 55°15' W 006°16'6 6.3
2015-Jul-05 18:33N 55°14' W 006°06'1110.2
2015-Jul-05 17:27N 55°05' W 005°54'1010.9
2015-Jul-05 16:33N 54°56' W 005°48'1010.3
2015-Jul-05 15:33N 54°47' W 005°39'6 5.8
2015-Jul-05 14:33N 54°41' W 005°43'4 4.4
2015-Jul-05 13:33N 54°40' W 005°50'5 0.2
2015-Jul-04 08:29N 54°36' W 005°55'0 0.0
2015-Jul-04 04:05N 54°36' W 005°55'0 0.0
2015-Jul-04 03:32N 54°36' W 005°55'0 0.0
2015-Jul-03 23:17N 54°36' W 005°55'0 0.0
2015-Jul-03 22:26N 54°36' W 005°55'0 0.0
2015-Jul-03 06:31N 54°37' W 005°55'7 6.8
2015-Jul-03 05:33N 54°41' W 005°47'4 3.6
2015-Jul-03 04:32N 54°41' W 005°41'0 0.0
2015-Jul-03 03:32N 54°41' W 005°41'0 0.0
2015-Jul-03 02:32N 54°41' W 005°41'0 0.0
2015-Jul-03 01:32N 54°41' W 005°41'0 0.0
2015-Jul-03 00:32N 54°41' W 005°41'0 0.0
2015-Jul-02 23:32N 54°41' W 005°41'0 0.0
2015-Jul-02 22:32N 54°41' W 005°41'0 0.0
2015-Jul-02 21:32N 54°41' W 005°41'0 0.3
2015-Jul-02 20:34N 54°41' W 005°40'5 5.4
2015-Jul-02 19:34N 54°46' W 005°36'7 7.0
2015-Jul-02 18:31N 54°52' W 005°40'7 6.8
2015-Jul-02 17:33N 54°57' W 005°49'7 5.9
2015-Jul-02 16:23N 55°03' W 005°55'5 6.3
2015-Jul-02 15:33N 55°08' W 005°58'5 4.6
2015-Jul-02 14:33N 55°12' W 006°02'4 4.0
2015-Jul-02 13:33N 55°14' W 006°08'2 2.3
2015-Jul-02 12:34N 55°14' W 006°12'2 1.8
2015-Jul-02 11:34N 55°15' W 006°15'5 5.3
2015-Jul-02 10:33N 55°16' W 006°24'4 4.2
2015-Jul-02 09:33N 55°18' W 006°30'5 5.4
2015-Jul-02 08:33N 55°24' W 006°29'6 5.8
2015-Jul-02 07:33N 55°29' W 006°29'6 5.5
2015-Jul-02 06:33N 55°35' W 006°31'6 6.4
2015-Jul-02 05:33N 55°41' W 006°34'7 6.5
2015-Jul-02 04:33N 55°47' W 006°31'20 0.5
2015-Jun-30 09:33N 55°40' W 005°59'6 6.3
2015-Jun-30 08:33N 55°35' W 006°06'4 3.8
2015-Jun-30 07:26N 55°38' W 006°13'0 0.0
2015-Jun-30 06:26N 55°38' W 006°13'0 0.0
2015-Jun-30 05:33N 55°38' W 006°13'4 3.6
2015-Jun-30 04:33N 55°34' W 006°11'4 4.5
2015-Jun-30 03:33N 55°30' W 006°10'5 5.5
2015-Jun-30 02:33N 55°29' W 006°01'5 5.0
2015-Jun-30 01:33N 55°28' W 005°52'6 6.5
2015-Jun-30 00:33N 55°22' W 005°51'7 7.1
2015-Jun-29 23:33N 55°16' W 005°45'22 5.5
2015-Jun-29 19:30N 55°23' W 005°08'15 0.6
2015-Jun-28 18:30N 55°09' W 005°17'4 3.7
2015-Jun-28 17:33N 55°05' W 005°20'1 0.9
2015-Jun-28 16:33N 55°05' W 005°22'2 1.9
2015-Jun-28 15:33N 55°04' W 005°24'2 1.8
2015-Jun-28 14:33N 55°03' W 005°27'3 2.6
2015-Jun-28 13:33N 55°00' W 005°29'3 3.0
2015-Jun-28 12:32N 54°58' W 005°31'3 2.8
2015-Jun-28 11:33N 54°55' W 005°32'4 3.6
2015-Jun-28 10:33N 54°51' W 005°32'5 4.7
2015-Jun-28 09:33N 54°47' W 005°32'6 6.3
2015-Jun-28 08:33N 54°42' W 005°39'7 6.8
2015-Jun-28 07:33N 54°40' W 005°51'4 4.0
2015-Jun-28 06:28N 54°36' W 005°55'0 0.0
2015-Jun-28 05:31N 54°36' W 005°55'0 0.0
2015-Jun-28 04:31N 54°36' W 005°55'0 0.0
2015-Jun-28 03:31N 54°36' W 005°55'0 0.0
2015-Jun-28 02:31N 54°36' W 005°55'0 0.0
2015-Jun-28 01:28N 54°36' W 005°55'0 0.0
2015-Jun-28 00:28N 54°36' W 005°55'0 0.0
2015-Jun-27 23:28N 54°36' W 005°55'0 0.0
2015-Jun-27 22:34N 54°36' W 005°55'0 0.0
2015-Jun-27 20:21N 54°36' W 005°55'0 0.0
2015-Jun-27 19:27N 54°36' W 005°55'0 0.0
2015-Jun-27 18:24N 54°36' W 005°55'0 0.0
2015-Jun-27 17:33N 54°36' W 005°55'0 0.0
2015-Jun-27 16:33N 54°36' W 005°55'0 0.0
2015-Jun-27 10:15N 54°36' W 005°55'0 0.0
2015-Jun-27 07:33N 54°36' W 005°55'0 0.0
2015-Jun-27 06:30N 54°36' W 005°55'0 0.0
2015-Jun-27 05:33N 54°36' W 005°55'0 0.0
2015-Jun-27 04:27N 54°36' W 005°55'0 0.0
2015-Jun-27 03:30N 54°36' W 005°55'0 0.0
2015-Jun-27 01:21N 54°36' W 005°55'0 0.0
2015-Jun-27 00:30N 54°36' W 005°55'0 0.0
2015-Jun-26 23:24N 54°36' W 005°55'0 0.0
2015-Jun-26 22:30N 54°36' W 005°55'0 0.0
2015-Jun-26 21:15N 54°36' W 005°55'0 0.0
2015-Jun-26 19:33N 54°36' W 005°55'0 0.0
2015-Jun-26 17:21N 54°36' W 005°55'  

Dump ship's entire track history